createdAt,value
2018-03-30T00:00:00.286Z,997.09
2018-03-30T00:01:00.295Z,997.08
2018-03-30T00:02:00.306Z,997.05
2018-03-30T00:03:00.320Z,997.05
2018-03-30T00:04:00.334Z,997.03
2018-03-30T00:05:00.342Z,997.04
2018-03-30T00:06:00.355Z,997.06
2018-03-30T00:07:00.368Z,997.09
2018-03-30T00:08:00.383Z,997.04
2018-03-30T00:09:00.393Z,997
2018-03-30T00:10:00.416Z,997
2018-03-30T00:11:00.416Z,997.01
2018-03-30T00:12:00.434Z,997.03
2018-03-30T00:13:00.490Z,997.03
2018-03-30T00:14:00.454Z,997.02
2018-03-30T00:15:00.469Z,997.01
2018-03-30T00:16:00.475Z,997.01
2018-03-30T00:17:00.488Z,997.05
2018-03-30T00:18:00.507Z,997.03
2018-03-30T00:19:00.514Z,997.08
2018-03-30T00:20:00.533Z,997.06
2018-03-30T00:21:00.537Z,997.05
2018-03-30T00:22:00.550Z,997.07
2018-03-30T00:23:00.611Z,997.08
2018-03-30T00:24:00.574Z,997.09
2018-03-30T00:25:00.586Z,997.1
2018-03-30T00:26:00.606Z,997.12
2018-03-30T00:27:00.608Z,997.11
2018-03-30T00:28:00.674Z,997.09
2018-03-30T00:29:00.633Z,997.11
2018-03-30T00:30:00.650Z,997.09
2018-03-30T00:31:00.657Z,997.07
2018-03-30T00:32:00.672Z,997.07
2018-03-30T00:33:00.682Z,997.07
2018-03-30T00:34:00.696Z,997.07
2018-03-30T00:35:00.706Z,997.06
2018-03-30T00:36:00.725Z,997.07
2018-03-30T00:37:00.731Z,997.12
2018-03-30T00:38:00.741Z,997.12
2018-03-30T00:39:00.754Z,997.14
2018-03-30T00:40:00.765Z,997.15
2018-03-30T00:41:00.777Z,997.14
2018-03-30T00:42:00.796Z,997.15
2018-03-30T00:43:00.853Z,997.15
2018-03-30T00:44:00.814Z,997.1
2018-03-30T00:45:00.827Z,997.11
2018-03-30T00:46:00.838Z,997.1
2018-03-30T00:47:00.849Z,997.12
2018-03-30T00:48:00.869Z,997.05
2018-03-30T00:49:00.872Z,997.04
2018-03-30T00:50:00.886Z,997.06
2018-03-30T00:51:00.896Z,997.05
2018-03-30T00:52:00.914Z,997.05
2018-03-30T00:53:00.919Z,997.06
2018-03-30T00:54:00.933Z,997.1
2018-03-30T00:55:00.944Z,997.09
2018-03-30T00:56:00.958Z,997.06
2018-03-30T00:57:00.967Z,997.1
2018-03-30T00:58:00.986Z,997.07
2018-03-30T00:59:00.992Z,997.07
2018-03-30T01:00:01.003Z,997.04
2018-03-30T01:01:01.016Z,997.04
2018-03-30T01:02:01.027Z,997.01
2018-03-30T01:03:01.040Z,997.04
2018-03-30T01:04:01.058Z,996.99
2018-03-30T01:05:01.065Z,997
2018-03-30T01:06:01.078Z,996.94
2018-03-30T01:07:01.089Z,996.98
2018-03-30T01:08:01.099Z,996.97
2018-03-30T01:09:01.110Z,996.92
2018-03-30T01:10:01.124Z,996.94
2018-03-30T01:11:01.135Z,996.92
2018-03-30T01:12:01.149Z,996.93
2018-03-30T01:13:01.159Z,996.96
2018-03-30T01:14:01.176Z,996.94
2018-03-30T01:15:01.181Z,996.95
2018-03-30T01:16:01.194Z,997
2018-03-30T01:17:01.206Z,996.99
2018-03-30T01:18:01.217Z,996.99
2018-03-30T01:19:01.230Z,997.04
2018-03-30T01:20:01.250Z,997.07
2018-03-30T01:21:01.254Z,997.08
2018-03-30T01:22:01.265Z,997.06
2018-03-30T01:23:01.278Z,997.12
2018-03-30T01:24:01.289Z,997.11
2018-03-30T01:25:01.300Z,997.08
2018-03-30T01:26:01.313Z,997.11
2018-03-30T01:27:01.324Z,997.06
2018-03-30T01:28:01.337Z,997.06
2018-03-30T01:29:01.349Z,997.08
2018-03-30T01:30:01.361Z,997.07
2018-03-30T01:31:01.373Z,997.08
2018-03-30T01:32:01.383Z,997.08
2018-03-30T01:33:01.398Z,997.06
2018-03-30T01:34:01.411Z,997.08
2018-03-30T01:35:01.420Z,997.05
2018-03-30T01:36:01.432Z,997.1
2018-03-30T01:37:01.450Z,997.08
2018-03-30T01:38:01.455Z,997.06
2018-03-30T01:39:01.465Z,997.08
2018-03-30T01:40:01.478Z,997.06
2018-03-30T01:41:01.497Z,997.1
2018-03-30T01:42:01.501Z,997.1
2018-03-30T01:43:01.513Z,997.08
2018-03-30T01:44:01.526Z,997.07
2018-03-30T01:45:01.537Z,997.09
2018-03-30T01:46:01.554Z,997.09
2018-03-30T01:47:01.560Z,997.13
2018-03-30T01:48:01.573Z,997.09
2018-03-30T01:49:01.587Z,997.07
2018-03-30T01:50:01.601Z,997.11
2018-03-30T01:51:01.611Z,997.1
2018-03-30T01:52:01.619Z,997.1
2018-03-30T01:53:01.634Z,997.13
2018-03-30T01:54:01.642Z,997.12
2018-03-30T01:55:01.654Z,997.06
2018-03-30T01:56:01.666Z,997.06
2018-03-30T01:57:01.682Z,997.08
2018-03-30T01:58:01.689Z,997.12
2018-03-30T01:59:01.804Z,997.1
2018-03-30T02:00:01.714Z,997.08
2018-03-30T02:01:01.725Z,997.12
2018-03-30T02:02:01.742Z,997.07
2018-03-30T02:03:01.765Z,997.07
2018-03-30T02:04:01.763Z,997.05
2018-03-30T02:05:01.772Z,997.04
2018-03-30T02:06:01.783Z,996.99
2018-03-30T02:07:01.794Z,996.98
2018-03-30T02:08:01.805Z,996.97
2018-03-30T02:09:01.816Z,996.96
2018-03-30T02:10:01.830Z,996.94
2018-03-30T02:11:01.842Z,996.96
2018-03-30T02:12:01.853Z,996.93
2018-03-30T02:13:01.863Z,996.91
2018-03-30T02:14:01.875Z,996.92
2018-03-30T02:15:01.888Z,996.93
2018-03-30T02:16:01.916Z,996.94
2018-03-30T02:17:01.909Z,996.9
2018-03-30T02:18:01.921Z,996.93
2018-03-30T02:19:01.984Z,996.94
2018-03-30T02:20:01.947Z,996.94
2018-03-30T02:21:01.961Z,996.92
2018-03-30T02:22:01.967Z,996.95
2018-03-30T02:23:01.981Z,996.94
2018-03-30T02:24:02.040Z,996.94
2018-03-30T02:25:02.004Z,996.92
2018-03-30T02:26:02.016Z,996.96
2018-03-30T02:27:02.058Z,996.93
2018-03-30T02:28:02.038Z,996.95
2018-03-30T02:29:02.050Z,996.87
2018-03-30T02:30:02.062Z,996.89
2018-03-30T02:31:02.081Z,996.91
2018-03-30T02:32:02.084Z,996.86
2018-03-30T02:33:02.096Z,996.93
2018-03-30T02:34:02.158Z,996.86
2018-03-30T02:35:02.119Z,996.86
2018-03-30T02:36:02.129Z,996.86
2018-03-30T02:37:02.143Z,996.8
2018-03-30T02:38:02.154Z,996.8
2018-03-30T02:39:02.165Z,996.77
2018-03-30T02:40:02.176Z,996.76
2018-03-30T02:41:02.187Z,996.81
2018-03-30T02:42:02.199Z,996.82
2018-03-30T02:43:02.211Z,996.82
2018-03-30T02:44:02.221Z,996.8
2018-03-30T02:45:02.236Z,996.83
2018-03-30T02:46:02.249Z,996.8
2018-03-30T02:47:02.258Z,996.82
2018-03-30T02:48:02.267Z,996.76
2018-03-30T02:49:02.280Z,996.76
2018-03-30T02:50:02.291Z,996.79
2018-03-30T02:51:02.304Z,996.76
2018-03-30T02:52:02.314Z,996.8
2018-03-30T02:53:02.325Z,996.77
2018-03-30T02:54:02.338Z,996.73
2018-03-30T02:55:02.349Z,996.7
2018-03-30T02:56:02.361Z,996.75
2018-03-30T02:57:02.370Z,996.76
2018-03-30T02:58:02.383Z,996.67
2018-03-30T02:59:02.395Z,996.7
2018-03-30T03:00:02.408Z,996.69
2018-03-30T03:01:02.420Z,996.67
2018-03-30T03:02:02.433Z,996.64
2018-03-30T03:03:02.442Z,996.62
2018-03-30T03:04:02.453Z,996.58
2018-03-30T03:05:02.463Z,996.58
2018-03-30T03:06:02.483Z,996.56
2018-03-30T03:07:02.488Z,996.6
2018-03-30T03:08:02.498Z,996.57
2018-03-30T03:09:02.508Z,996.57
2018-03-30T03:10:02.522Z,996.56
2018-03-30T03:11:02.535Z,996.52
2018-03-30T03:12:02.543Z,996.5
2018-03-30T03:13:02.554Z,996.49
2018-03-30T03:14:02.567Z,996.48
2018-03-30T03:15:02.579Z,996.46
2018-03-30T03:16:02.591Z,996.44
2018-03-30T03:17:02.601Z,996.42
2018-03-30T03:18:02.613Z,996.42
2018-03-30T03:19:02.624Z,996.47
2018-03-30T03:20:02.633Z,996.46
2018-03-30T03:21:02.647Z,996.43
2018-03-30T03:22:02.656Z,996.44
2018-03-30T03:23:02.668Z,996.39
2018-03-30T03:24:02.682Z,996.39
2018-03-30T03:25:02.693Z,996.4
2018-03-30T03:26:02.704Z,996.37
2018-03-30T03:27:02.718Z,996.37
2018-03-30T03:28:02.725Z,996.32
2018-03-30T03:29:02.737Z,996.32
2018-03-30T03:30:02.750Z,996.32
2018-03-30T03:31:02.759Z,996.34
2018-03-30T03:32:02.771Z,996.34
2018-03-30T03:33:02.784Z,996.31
2018-03-30T03:34:02.793Z,996.32
2018-03-30T03:35:02.805Z,996.31
2018-03-30T03:36:02.817Z,996.31
2018-03-30T03:37:02.827Z,996.32
2018-03-30T03:38:02.838Z,996.32
2018-03-30T03:39:02.850Z,996.29
2018-03-30T03:40:02.862Z,996.31
2018-03-30T03:41:02.872Z,996.32
2018-03-30T03:42:02.884Z,996.29
2018-03-30T03:43:02.894Z,996.32
2018-03-30T03:44:02.907Z,996.27
2018-03-30T03:45:02.917Z,996.29
2018-03-30T03:46:02.928Z,996.28
2018-03-30T03:47:02.942Z,996.28
2018-03-30T03:48:02.954Z,996.27
2018-03-30T03:49:02.963Z,996.25
2018-03-30T03:50:03.180Z,996.25
2018-03-30T03:51:02.986Z,996.28
2018-03-30T03:52:02.996Z,996.23
2018-03-30T03:53:03.008Z,996.18
2018-03-30T03:54:03.019Z,996.21
2018-03-30T03:55:03.032Z,996.2
2018-03-30T03:56:03.042Z,996.22
2018-03-30T03:57:03.053Z,996.25
2018-03-30T03:58:03.065Z,996.26
2018-03-30T03:59:03.076Z,996.26
2018-03-30T04:00:03.085Z,996.26
2018-03-30T04:01:03.097Z,996.23
2018-03-30T04:02:03.108Z,996.21
2018-03-30T04:03:03.121Z,996.22
2018-03-30T04:04:03.131Z,996.2
2018-03-30T04:05:03.194Z,996.2
2018-03-30T04:06:03.158Z,996.19
2018-03-30T04:07:03.166Z,996.2
2018-03-30T04:08:03.176Z,996.22
2018-03-30T04:09:03.188Z,996.17
2018-03-30T04:10:03.199Z,996.19
2018-03-30T04:11:03.210Z,996.2
2018-03-30T04:12:03.222Z,996.19
2018-03-30T04:13:03.232Z,996.23
2018-03-30T04:14:03.244Z,996.26
2018-03-30T04:15:03.255Z,996.23
2018-03-30T04:16:03.274Z,996.24
2018-03-30T04:17:03.277Z,996.24
2018-03-30T04:18:03.287Z,996.27
2018-03-30T04:19:03.299Z,996.28
2018-03-30T04:20:03.311Z,996.25
2018-03-30T04:21:03.321Z,996.28
2018-03-30T04:22:03.331Z,996.25
2018-03-30T04:23:03.350Z,996.26
2018-03-30T04:24:03.354Z,996.26
2018-03-30T04:25:03.365Z,996.26
2018-03-30T04:26:03.376Z,996.24
2018-03-30T04:27:03.389Z,996.26
2018-03-30T04:28:03.399Z,996.28
2018-03-30T04:29:03.410Z,996.26
2018-03-30T04:30:03.422Z,996.24
2018-03-30T04:31:03.432Z,996.26
2018-03-30T04:32:03.443Z,996.27
2018-03-30T04:33:03.454Z,996.27
2018-03-30T04:34:03.522Z,996.29
2018-03-30T04:35:03.481Z,996.3
2018-03-30T04:36:03.488Z,996.33
2018-03-30T04:37:03.500Z,996.34
2018-03-30T04:38:03.513Z,996.29
2018-03-30T04:39:03.524Z,996.29
2018-03-30T04:40:03.534Z,996.34
2018-03-30T04:41:03.549Z,996.36
2018-03-30T04:42:03.557Z,996.39
2018-03-30T04:43:03.566Z,996.35
2018-03-30T04:44:03.583Z,996.38
2018-03-30T04:45:03.590Z,996.35
2018-03-30T04:46:03.599Z,996.35
2018-03-30T04:47:03.610Z,996.35
2018-03-30T04:48:03.621Z,996.36
2018-03-30T04:49:03.637Z,996.35
2018-03-30T04:50:03.650Z,996.39
2018-03-30T04:51:03.656Z,996.39
2018-03-30T04:52:03.679Z,996.34
2018-03-30T04:53:03.678Z,996.35
2018-03-30T04:54:03.688Z,996.32
2018-03-30T04:55:03.701Z,996.29
2018-03-30T04:56:03.710Z,996.35
2018-03-30T04:57:03.722Z,996.36
2018-03-30T04:58:03.732Z,996.4
2018-03-30T04:59:03.746Z,996.42
2018-03-30T05:00:03.805Z,996.41
2018-03-30T05:01:03.767Z,996.43
2018-03-30T05:02:03.777Z,996.46
2018-03-30T05:03:03.793Z,996.45
2018-03-30T05:04:03.799Z,996.48
2018-03-30T05:05:03.810Z,996.49
2018-03-30T05:06:03.821Z,996.5
2018-03-30T05:07:03.832Z,996.52
2018-03-30T05:08:03.844Z,996.51
2018-03-30T05:09:03.854Z,996.51
2018-03-30T05:10:03.865Z,996.54
2018-03-30T05:11:03.876Z,996.57
2018-03-30T05:12:03.896Z,996.57
2018-03-30T05:13:03.899Z,996.51
2018-03-30T05:14:03.910Z,996.5
2018-03-30T05:15:03.956Z,996.5
2018-03-30T05:16:03.932Z,996.5
2018-03-30T05:17:03.942Z,996.5
2018-03-30T05:18:03.954Z,996.54
2018-03-30T05:19:03.965Z,996.46
2018-03-30T05:20:03.976Z,996.48
2018-03-30T05:21:03.986Z,996.46
2018-03-30T05:22:04.002Z,996.43
2018-03-30T05:23:04.008Z,996.45
2018-03-30T05:24:04.020Z,996.4
2018-03-30T05:25:04.031Z,996.47
2018-03-30T05:26:04.044Z,996.44
2018-03-30T05:27:04.053Z,996.43
2018-03-30T05:28:04.064Z,996.41
2018-03-30T05:29:04.076Z,996.45
2018-03-30T05:30:04.086Z,996.46
2018-03-30T05:31:04.097Z,996.5
2018-03-30T05:32:04.108Z,996.5
2018-03-30T05:33:04.119Z,996.5
2018-03-30T05:34:04.132Z,996.51
2018-03-30T05:35:04.141Z,996.49
2018-03-30T05:36:04.153Z,996.57
2018-03-30T05:37:04.166Z,996.57
2018-03-30T05:38:04.175Z,996.59
2018-03-30T05:39:04.185Z,996.57
2018-03-30T05:40:04.200Z,996.57
2018-03-30T05:41:04.208Z,996.55
2018-03-30T05:42:04.218Z,996.58
2018-03-30T05:43:04.234Z,996.59
2018-03-30T05:44:04.242Z,996.59
2018-03-30T05:45:04.301Z,996.55
2018-03-30T05:46:04.263Z,996.6
2018-03-30T05:47:04.274Z,996.59
2018-03-30T05:48:04.287Z,996.59
2018-03-30T05:49:04.298Z,996.62
2018-03-30T05:50:04.307Z,996.6
2018-03-30T05:51:04.317Z,996.6
2018-03-30T05:52:04.330Z,996.61
2018-03-30T05:53:04.339Z,996.62
2018-03-30T05:54:04.351Z,996.66
2018-03-30T05:55:04.363Z,996.64
2018-03-30T05:56:04.376Z,996.69
2018-03-30T05:57:04.385Z,996.7
2018-03-30T05:58:04.399Z,996.74
2018-03-30T05:59:04.407Z,996.77
2018-03-30T06:00:04.418Z,996.78
2018-03-30T06:01:04.429Z,996.81
2018-03-30T06:02:04.441Z,996.74
2018-03-30T06:03:04.451Z,996.75
2018-03-30T06:04:04.462Z,996.78
2018-03-30T06:05:04.474Z,996.76
2018-03-30T06:06:04.484Z,996.78
2018-03-30T06:07:04.494Z,996.8
2018-03-30T06:08:04.548Z,996.82
2018-03-30T06:09:04.519Z,996.85
2018-03-30T06:10:04.588Z,996.81
2018-03-30T06:11:04.539Z,996.8
2018-03-30T06:12:04.553Z,996.81
2018-03-30T06:13:04.564Z,996.81
2018-03-30T06:14:04.574Z,996.76
2018-03-30T06:15:04.593Z,996.75
2018-03-30T06:16:04.597Z,996.74
2018-03-30T06:17:04.608Z,996.7
2018-03-30T06:18:04.618Z,996.68
2018-03-30T06:19:04.648Z,996.7
2018-03-30T06:20:04.641Z,996.73
2018-03-30T06:21:04.657Z,996.7
2018-03-30T06:22:04.664Z,996.71
2018-03-30T06:23:04.676Z,996.71
2018-03-30T06:24:04.688Z,996.71
2018-03-30T06:25:04.753Z,996.72
2018-03-30T06:26:04.708Z,996.72
2018-03-30T06:27:04.721Z,996.71
2018-03-30T06:28:04.739Z,996.74
2018-03-30T06:29:04.743Z,996.75
2018-03-30T06:30:04.754Z,996.72
2018-03-30T06:31:04.766Z,996.77
2018-03-30T06:32:04.775Z,996.8
2018-03-30T06:33:04.787Z,996.77
2018-03-30T06:34:04.800Z,996.77
2018-03-30T06:35:04.810Z,996.8
2018-03-30T06:36:04.822Z,996.82
2018-03-30T06:37:04.836Z,996.78
2018-03-30T06:38:04.844Z,996.81
2018-03-30T06:39:04.855Z,996.84
2018-03-30T06:40:04.867Z,996.84
2018-03-30T06:41:04.877Z,996.82
2018-03-30T06:42:04.890Z,996.86
2018-03-30T06:43:04.900Z,996.84
2018-03-30T06:44:04.912Z,996.84
2018-03-30T06:45:04.926Z,996.8
2018-03-30T06:46:04.936Z,996.84
2018-03-30T06:47:04.952Z,996.86
2018-03-30T06:48:04.957Z,996.92
2018-03-30T06:49:04.969Z,996.95
2018-03-30T06:50:04.981Z,996.93
2018-03-30T06:51:04.990Z,996.93
2018-03-30T06:52:05.003Z,996.99
2018-03-30T06:53:05.015Z,996.95
2018-03-30T06:54:05.026Z,996.97
2018-03-30T06:55:05.036Z,996.95
2018-03-30T06:56:05.048Z,996.95
2018-03-30T06:57:05.060Z,997
2018-03-30T06:58:05.069Z,996.97
2018-03-30T06:59:05.082Z,996.96
2018-03-30T07:00:05.099Z,996.94
2018-03-30T07:01:05.105Z,996.95
2018-03-30T07:02:05.119Z,996.9
2018-03-30T07:03:05.132Z,996.9
2018-03-30T07:04:05.139Z,996.87
2018-03-30T07:05:05.149Z,996.83
2018-03-30T07:06:05.167Z,996.82
2018-03-30T07:07:05.174Z,996.82
2018-03-30T07:08:05.184Z,996.83
2018-03-30T07:09:05.198Z,996.85
2018-03-30T07:10:05.214Z,996.85
2018-03-30T07:11:05.219Z,996.83
2018-03-30T07:12:05.232Z,996.85
2018-03-30T07:13:05.241Z,996.86
2018-03-30T07:14:05.256Z,996.8
2018-03-30T07:15:05.266Z,996.75
2018-03-30T07:16:05.335Z,996.75
2018-03-30T07:17:05.291Z,996.72
2018-03-30T07:18:05.300Z,996.7
2018-03-30T07:19:05.312Z,996.68
2018-03-30T07:20:05.323Z,996.69
2018-03-30T07:21:05.334Z,996.68
2018-03-30T07:22:05.345Z,996.65
2018-03-30T07:23:05.357Z,996.66
2018-03-30T07:24:05.368Z,996.66
2018-03-30T07:25:05.380Z,996.66
2018-03-30T07:26:05.393Z,996.64
2018-03-30T07:27:05.404Z,996.65
2018-03-30T07:28:05.416Z,996.62
2018-03-30T07:29:05.427Z,996.6
2018-03-30T07:30:05.440Z,996.59
2018-03-30T07:31:05.450Z,996.57
2018-03-30T07:32:05.462Z,996.6
2018-03-30T07:33:05.474Z,996.59
2018-03-30T07:34:05.532Z,996.58
2018-03-30T07:35:05.503Z,996.57
2018-03-30T07:36:05.509Z,996.6
2018-03-30T07:37:05.520Z,996.57
2018-03-30T07:38:05.532Z,996.55
2018-03-30T07:39:05.545Z,996.51
2018-03-30T07:40:05.557Z,996.47
2018-03-30T07:41:05.567Z,996.48
2018-03-30T07:42:05.579Z,996.45
2018-03-30T07:43:05.593Z,996.45
2018-03-30T07:44:05.604Z,996.43
2018-03-30T07:45:05.615Z,996.39
2018-03-30T07:46:05.632Z,996.41
2018-03-30T07:47:05.640Z,996.35
2018-03-30T07:48:05.652Z,996.38
2018-03-30T07:49:05.688Z,996.4
2018-03-30T07:50:05.676Z,996.32
2018-03-30T07:51:05.689Z,996.33
2018-03-30T07:52:05.701Z,996.31
2018-03-30T07:53:05.712Z,996.32
2018-03-30T07:54:05.724Z,996.29
2018-03-30T07:55:05.736Z,996.3
2018-03-30T07:56:05.799Z,996.29
2018-03-30T07:57:05.761Z,996.27
2018-03-30T07:58:05.773Z,996.28
2018-03-30T07:59:05.785Z,996.29
2018-03-30T08:00:05.802Z,996.27
2018-03-30T08:01:05.810Z,996.26
2018-03-30T08:02:05.823Z,996.2
2018-03-30T08:03:05.843Z,996.22
2018-03-30T08:04:05.847Z,996.22
2018-03-30T08:05:05.858Z,996.2
2018-03-30T08:06:05.873Z,996.22
2018-03-30T08:07:05.884Z,996.23
2018-03-30T08:08:05.898Z,996.25
2018-03-30T08:09:05.953Z,996.2
2018-03-30T08:10:05.922Z,996.21
2018-03-30T08:11:05.938Z,996.21
2018-03-30T08:12:05.946Z,996.24
2018-03-30T08:13:05.960Z,996.22
2018-03-30T08:14:05.979Z,996.19
2018-03-30T08:15:05.983Z,996.19
2018-03-30T08:16:06.048Z,996.18
2018-03-30T08:17:06.010Z,996.18
2018-03-30T08:18:06.029Z,996.18
2018-03-30T08:19:06.039Z,996.18
2018-03-30T08:20:06.048Z,996.16
2018-03-30T08:21:06.110Z,996.14
2018-03-30T08:22:06.073Z,996.14
2018-03-30T08:23:06.087Z,996.11
2018-03-30T08:24:06.099Z,996.05
2018-03-30T08:25:06.179Z,996.07
2018-03-30T08:26:06.176Z,996.06
2018-03-30T08:27:06.139Z,996.08
2018-03-30T08:28:06.151Z,996.08
2018-03-30T08:29:06.164Z,996.1
2018-03-30T08:30:06.178Z,996.13
2018-03-30T08:31:06.190Z,996.08
2018-03-30T08:32:06.204Z,996.12
2018-03-30T08:33:06.217Z,996.09
2018-03-30T08:34:06.230Z,996.09
2018-03-30T08:35:06.245Z,996.11
2018-03-30T08:36:06.256Z,996.13
2018-03-30T08:37:06.270Z,996.09
2018-03-30T08:38:06.288Z,996.1
2018-03-30T08:39:06.296Z,996.06
2018-03-30T08:40:06.309Z,996.11
2018-03-30T08:41:06.322Z,996.09
2018-03-30T08:42:06.335Z,996.08
2018-03-30T08:43:06.349Z,996.06
2018-03-30T08:44:06.361Z,996.06
2018-03-30T08:45:06.375Z,996.06
2018-03-30T08:46:06.389Z,996.07
2018-03-30T08:47:06.404Z,996.02
2018-03-30T08:48:06.417Z,996.06
2018-03-30T08:49:06.429Z,996.03
2018-03-30T08:50:06.443Z,996.04
2018-03-30T08:51:06.455Z,996.08
2018-03-30T08:52:06.471Z,996.1
2018-03-30T08:53:06.483Z,996.09
2018-03-30T08:54:06.499Z,996.08
2018-03-30T08:55:06.510Z,996.08
2018-03-30T08:56:06.524Z,996.11
2018-03-30T08:57:06.539Z,996.04
2018-03-30T08:58:06.553Z,996.07
2018-03-30T08:59:06.565Z,996.07
2018-03-30T09:00:06.580Z,996.05
2018-03-30T09:01:06.593Z,996.07
2018-03-30T09:02:06.623Z,996.07
2018-03-30T09:03:06.622Z,996.07
2018-03-30T09:04:06.639Z,996.01
2018-03-30T09:05:06.650Z,996.02
2018-03-30T09:06:06.664Z,995.99
2018-03-30T09:07:06.676Z,996
2018-03-30T09:08:06.691Z,996.01
2018-03-30T09:09:06.705Z,996
2018-03-30T09:10:06.718Z,995.96
2018-03-30T09:11:06.735Z,995.99
2018-03-30T09:12:06.750Z,995.99
2018-03-30T09:13:06.768Z,995.91
2018-03-30T09:14:06.775Z,995.98
2018-03-30T09:15:06.790Z,995.97
2018-03-30T09:16:06.805Z,995.95
2018-03-30T09:17:06.841Z,995.96
2018-03-30T09:18:06.834Z,995.92
2018-03-30T09:19:06.851Z,995.92
2018-03-30T09:20:06.860Z,995.89
2018-03-30T09:21:06.876Z,995.84
2018-03-30T09:22:06.890Z,995.82
2018-03-30T09:23:06.905Z,995.87
2018-03-30T09:24:06.920Z,995.82
2018-03-30T09:25:06.934Z,995.83
2018-03-30T09:26:06.974Z,995.82
2018-03-30T09:27:07.009Z,995.82
2018-03-30T09:28:06.975Z,995.82
2018-03-30T09:29:06.996Z,995.79
2018-03-30T09:30:07.007Z,995.79
2018-03-30T09:31:07.019Z,995.79
2018-03-30T09:32:07.035Z,995.79
2018-03-30T09:33:07.050Z,995.77
2018-03-30T09:34:07.065Z,995.72
2018-03-30T09:35:07.085Z,995.69
2018-03-30T09:36:07.094Z,995.7
2018-03-30T09:37:07.109Z,995.68
2018-03-30T09:38:07.123Z,995.7
2018-03-30T09:39:07.137Z,995.68
2018-03-30T09:40:07.153Z,995.62
2018-03-30T09:41:07.169Z,995.61
2018-03-30T09:42:07.182Z,995.55
2018-03-30T09:43:07.197Z,995.58
2018-03-30T09:44:07.218Z,995.56
2018-03-30T09:45:07.227Z,995.52
2018-03-30T09:46:07.242Z,995.55
2018-03-30T09:47:07.258Z,995.52
2018-03-30T09:48:07.274Z,995.5
2018-03-30T09:49:07.288Z,995.5
2018-03-30T09:50:07.302Z,995.45
2018-03-30T09:51:07.319Z,995.44
2018-03-30T09:52:07.334Z,995.41
2018-03-30T09:53:07.349Z,995.42
2018-03-30T09:54:07.365Z,995.33
2018-03-30T09:55:07.379Z,995.31
2018-03-30T09:56:07.395Z,995.34
2018-03-30T09:57:07.409Z,995.3
2018-03-30T09:58:07.425Z,995.29
2018-03-30T09:59:07.447Z,995.25
2018-03-30T10:00:07.458Z,995.29
2018-03-30T10:01:07.473Z,995.29
2018-03-30T10:02:07.537Z,995.24
2018-03-30T10:03:07.505Z,995.29
2018-03-30T10:04:07.519Z,995.27
2018-03-30T10:05:07.536Z,995.32
2018-03-30T10:06:07.551Z,995.28
2018-03-30T10:07:07.567Z,995.3
2018-03-30T10:08:07.582Z,995.26
2018-03-30T10:09:07.599Z,995.27
2018-03-30T10:10:07.614Z,995.26
2018-03-30T10:11:07.630Z,995.25
2018-03-30T10:12:07.646Z,995.25
2018-03-30T10:13:07.662Z,995.25
2018-03-30T10:14:07.678Z,995.22
2018-03-30T10:15:07.695Z,995.23
2018-03-30T10:16:07.712Z,995.17
2018-03-30T10:17:07.727Z,995.1
2018-03-30T10:18:07.800Z,995.12
2018-03-30T10:19:07.758Z,995.12
2018-03-30T10:20:07.775Z,995.1
2018-03-30T10:21:07.791Z,995.09
2018-03-30T10:22:07.809Z,995.09
2018-03-30T10:23:07.823Z,995.13
2018-03-30T10:24:07.841Z,995.1
2018-03-30T10:25:07.857Z,995.07
2018-03-30T10:26:07.872Z,995.01
2018-03-30T10:27:07.889Z,995.04
2018-03-30T10:28:07.907Z,994.99
2018-03-30T10:29:07.923Z,994.97
2018-03-30T10:30:07.938Z,994.98
2018-03-30T10:31:07.955Z,994.98
2018-03-30T10:32:07.973Z,994.94
2018-03-30T10:33:07.990Z,994.92
2018-03-30T10:34:08.007Z,994.89
2018-03-30T10:35:08.023Z,994.82
2018-03-30T10:36:08.041Z,994.8
2018-03-30T10:37:08.062Z,994.82
2018-03-30T10:38:08.074Z,994.79
2018-03-30T10:39:08.091Z,994.8
2018-03-30T10:40:08.108Z,994.77
2018-03-30T10:41:08.126Z,994.78
2018-03-30T10:42:08.143Z,994.74
2018-03-30T10:43:08.160Z,994.71
2018-03-30T10:44:08.176Z,994.69
2018-03-30T10:45:08.195Z,994.69
2018-03-30T10:46:08.211Z,994.68
2018-03-30T10:47:08.230Z,994.64
2018-03-30T10:48:08.245Z,994.62
2018-03-30T10:49:08.264Z,994.61
2018-03-30T10:50:08.280Z,994.56
2018-03-30T10:51:08.298Z,994.6
2018-03-30T10:52:08.315Z,994.6
2018-03-30T10:53:08.333Z,994.58
2018-03-30T10:54:08.350Z,994.56
2018-03-30T10:55:08.369Z,994.59
2018-03-30T10:56:08.390Z,994.61
2018-03-30T10:57:08.403Z,994.55
2018-03-30T10:58:08.420Z,994.55
2018-03-30T10:59:08.438Z,994.53
2018-03-30T11:00:08.457Z,994.48
2018-03-30T11:01:08.476Z,994.45
2018-03-30T11:02:08.492Z,994.43
2018-03-30T11:03:08.510Z,994.45
2018-03-30T11:04:08.532Z,994.4
2018-03-30T11:05:08.592Z,994.39
2018-03-30T11:06:08.565Z,994.36
2018-03-30T11:07:08.581Z,994.32
2018-03-30T11:08:08.601Z,994.33
2018-03-30T11:09:08.619Z,994.36
2018-03-30T11:10:08.637Z,994.35
2018-03-30T11:11:08.658Z,994.33
2018-03-30T11:12:08.673Z,994.33
2018-03-30T11:13:08.693Z,994.34
2018-03-30T11:14:08.709Z,994.41
2018-03-30T11:15:08.730Z,994.39
2018-03-30T11:16:08.745Z,994.35
2018-03-30T11:17:08.767Z,994.35
2018-03-30T11:18:08.781Z,994.34
2018-03-30T11:19:08.800Z,994.38
2018-03-30T11:20:08.819Z,994.35
2018-03-30T11:21:08.839Z,994.36
2018-03-30T11:22:08.861Z,994.36
2018-03-30T11:23:08.875Z,994.35
2018-03-30T11:24:08.893Z,994.32
2018-03-30T11:25:08.912Z,994.33
2018-03-30T11:26:08.929Z,994.32
2018-03-30T11:27:08.950Z,994.32
2018-03-30T11:28:08.967Z,994.34
2018-03-30T11:29:08.987Z,994.3
2018-03-30T11:30:09.006Z,994.34
2018-03-30T11:31:09.024Z,994.35
2018-03-30T11:32:09.044Z,994.34
2018-03-30T11:33:09.062Z,994.28
2018-03-30T11:34:09.086Z,994.24
2018-03-30T11:35:09.101Z,994.28
2018-03-30T11:36:09.120Z,994.25
2018-03-30T11:37:09.142Z,994.28
2018-03-30T11:38:09.160Z,994.26
2018-03-30T11:39:09.175Z,994.21
2018-03-30T11:40:09.194Z,994.15
2018-03-30T11:41:09.216Z,994.16
2018-03-30T11:42:09.235Z,994.06
2018-03-30T11:43:09.255Z,994.02
2018-03-30T11:44:09.274Z,994.04
2018-03-30T11:45:09.296Z,993.96
2018-03-30T11:46:09.312Z,994.01
2018-03-30T11:47:09.332Z,994.01
2018-03-30T11:48:09.349Z,994.01
2018-03-30T11:49:09.368Z,993.91
2018-03-30T11:50:09.389Z,993.95
2018-03-30T11:51:09.408Z,993.9
2018-03-30T11:52:09.428Z,993.93
2018-03-30T11:53:09.500Z,993.89
2018-03-30T11:54:09.465Z,993.85
2018-03-30T11:55:09.485Z,993.78
2018-03-30T11:56:09.505Z,993.77
2018-03-30T11:57:09.529Z,993.74
2018-03-30T11:58:09.643Z,993.77
2018-03-30T11:59:09.564Z,993.74
2018-03-30T12:00:09.583Z,993.79
2018-03-30T12:01:09.601Z,993.73
2018-03-30T12:02:09.627Z,993.73
2018-03-30T12:03:09.695Z,993.7
2018-03-30T12:04:09.662Z,993.68
2018-03-30T12:05:09.679Z,993.65
2018-03-30T12:06:09.700Z,993.67
2018-03-30T12:07:09.720Z,993.65
2018-03-30T12:08:09.794Z,993.6
2018-03-30T12:09:09.785Z,993.57
2018-03-30T12:10:09.779Z,993.53
2018-03-30T12:11:09.800Z,993.5
2018-03-30T12:12:09.819Z,993.47
2018-03-30T12:13:09.939Z,993.53
2018-03-30T12:14:09.859Z,993.45
2018-03-30T12:15:09.877Z,993.45
2018-03-30T12:16:09.897Z,993.44
2018-03-30T12:17:09.918Z,993.41
2018-03-30T12:18:09.937Z,993.39
2018-03-30T12:19:09.957Z,993.35
2018-03-30T12:20:09.980Z,993.33
2018-03-30T12:21:09.996Z,993.31
2018-03-30T12:22:10.016Z,993.34
2018-03-30T12:23:10.037Z,993.37
2018-03-30T12:24:10.057Z,993.28
2018-03-30T12:25:10.076Z,993.27
2018-03-30T12:26:10.098Z,993.25
2018-03-30T12:27:10.115Z,993.24
2018-03-30T12:28:10.136Z,993.21
2018-03-30T12:29:10.157Z,993.15
2018-03-30T12:30:10.176Z,993.09
2018-03-30T12:31:10.197Z,993.07